sensor_id;sensor_type;location;lat;lon;timestamp;pressure;altitude;pressure_sealevel;temperature;humidity
28432;BME280;15664;51.302;7.744;2022-09-09T00:01:04;96493.72;;;13.73;96.27
28432;BME280;15664;51.302;7.744;2022-09-09T00:06:33;96493.78;;;13.78;96.40
28432;BME280;15664;51.302;7.744;2022-09-09T00:09:18;96493.53;;;13.80;96.38
28432;BME280;15664;51.302;7.744;2022-09-09T00:11:49;96493.88;;;13.83;96.59
28432;BME280;15664;51.302;7.744;2022-09-09T00:14:48;96484.81;;;13.89;96.15
28432;BME280;15664;51.302;7.744;2022-09-09T00:17:48;96485.47;;;13.97;95.76
28432;BME280;15664;51.302;7.744;2022-09-09T00:20:32;96492.53;;;14.03;94.90
28432;BME280;15664;51.302;7.744;2022-09-09T00:23:09;96488.31;;;14.07;94.78
28432;BME280;15664;51.302;7.744;2022-09-09T00:25:41;96490.25;;;14.11;94.39
28432;BME280;15664;51.302;7.744;2022-09-09T00:28:20;96491.38;;;14.16;94.35
28432;BME280;15664;51.302;7.744;2022-09-09T00:30:47;96483.09;;;14.17;94.23
28432;BME280;15664;51.302;7.744;2022-09-09T00:33:15;96479.09;;;14.20;94.17
28432;BME280;15664;51.302;7.744;2022-09-09T00:35:49;96481.53;;;14.21;93.96
28432;BME280;15664;51.302;7.744;2022-09-09T00:44:00;96479.41;;;14.23;93.10
28432;BME280;15664;51.302;7.744;2022-09-09T00:47:04;96487.22;;;14.25;93.02
28432;BME280;15664;51.302;7.744;2022-09-09T00:49:39;96485.34;;;14.25;92.25
28432;BME280;15664;51.302;7.744;2022-09-09T00:52:32;96483.47;;;14.26;92.39
28432;BME280;15664;51.302;7.744;2022-09-09T00:57:37;96487.72;;;14.22;92.38
28432;BME280;15664;51.302;7.744;2022-09-09T01:00:24;96490.31;;;14.17;92.36
28432;BME280;15664;51.302;7.744;2022-09-09T01:05:49;96482.88;;;14.02;92.45
28432;BME280;15664;51.302;7.744;2022-09-09T01:10:56;96471.44;;;13.89;93.42
28432;BME280;15664;51.302;7.744;2022-09-09T01:13:29;96473.47;;;13.82;93.71
28432;BME280;15664;51.302;7.744;2022-09-09T01:15:59;96469.59;;;13.73;94.13
28432;BME280;15664;51.302;7.744;2022-09-09T01:18:32;96475.34;;;13.65;94.85
28432;BME280;15664;51.302;7.744;2022-09-09T01:21:32;96481.91;;;13.57;94.91
28432;BME280;15664;51.302;7.744;2022-09-09T01:24:13;96472.69;;;13.48;95.06
28432;BME280;15664;51.302;7.744;2022-09-09T01:26:59;96474.94;;;13.39;95.58
28432;BME280;15664;51.302;7.744;2022-09-09T01:29:26;96484.94;;;13.32;95.80
28432;BME280;15664;51.302;7.744;2022-09-09T01:31:57;96477.41;;;13.28;96.80
28432;BME280;15664;51.302;7.744;2022-09-09T01:34:25;96483.47;;;13.24;96.92
28432;BME280;15664;51.302;7.744;2022-09-09T01:36:59;96477.22;;;13.18;97.10
28432;BME280;15664;51.302;7.744;2022-09-09T01:39:27;96481.19;;;13.16;97.34
28432;BME280;15664;51.302;7.744;2022-09-09T01:41:59;96466.44;;;13.13;97.56
28432;BME280;15664;51.302;7.744;2022-09-09T01:44:26;96464.81;;;13.12;97.82
28432;BME280;15664;51.302;7.744;2022-09-09T01:46:52;96472.25;;;13.10;98.04
28432;BME280;15664;51.302;7.744;2022-09-09T01:49:19;96472.84;;;13.12;98.77
28432;BME280;15664;51.302;7.744;2022-09-09T01:51:54;96469.13;;;13.13;98.76
28432;BME280;15664;51.302;7.744;2022-09-09T01:54:31;96471.06;;;13.18;99.09
28432;BME280;15664;51.302;7.744;2022-09-09T02:00:09;96467.28;;;13.31;99.11
28432;BME280;15664;51.302;7.744;2022-09-09T02:03:00;96471.69;;;13.37;99.23
28432;BME280;15664;51.302;7.744;2022-09-09T02:05:43;96464.81;;;13.41;98.98
28432;BME280;15664;51.302;7.744;2022-09-09T02:08:21;96479.56;;;13.43;98.49
28432;BME280;15664;51.302;7.744;2022-09-09T02:13:37;96482.00;;;13.45;98.27
28432;BME280;15664;51.302;7.744;2022-09-09T02:16:18;96474.78;;;13.45;98.48
28432;BME280;15664;51.302;7.744;2022-09-09T02:21:44;96473.88;;;13.40;98.18
28432;BME280;15664;51.302;7.744;2022-09-09T02:24:11;96476.19;;;13.36;98.41
28432;BME280;15664;51.302;7.744;2022-09-09T02:26:45;96480.97;;;13.34;98.68
28432;BME280;15664;51.302;7.744;2022-09-09T02:29:23;96485.78;;;13.32;98.95
28432;BME280;15664;51.302;7.744;2022-09-09T02:31:52;96483.91;;;13.33;99.45
28432;BME280;15664;51.302;7.744;2022-09-09T02:34:25;96486.03;;;13.31;99.38
28432;BME280;15664;51.302;7.744;2022-09-09T02:36:53;96480.09;;;13.28;99.38
28432;BME280;15664;51.302;7.744;2022-09-09T02:39:20;96475.22;;;13.25;99.47
28432;BME280;15664;51.302;7.744;2022-09-09T02:41:46;96468.25;;;13.24;99.49
28432;BME280;15664;51.302;7.744;2022-09-09T02:44:14;96478.13;;;13.24;99.51
28432;BME280;15664;51.302;7.744;2022-09-09T02:47:20;96467.56;;;13.17;99.65
28432;BME280;15664;51.302;7.744;2022-09-09T02:50:04;96473.41;;;13.14;100.00
28432;BME280;15664;51.302;7.744;2022-09-09T02:55:41;96480.38;;;13.15;100.00
28432;BME280;15664;51.302;7.744;2022-09-09T02:58:12;96473.97;;;13.16;100.00
28432;BME280;15664;51.302;7.744;2022-09-09T03:00:45;96466.19;;;13.15;100.00
28432;BME280;15664;51.302;7.744;2022-09-09T03:03:11;96475.03;;;13.15;100.00
28432;BME280;15664;51.302;7.744;2022-09-09T03:05:37;96475.84;;;13.16;100.00
28432;BME280;15664;51.302;7.744;2022-09-09T03:08:05;96479.06;;;13.18;100.00
28432;BME280;15664;51.302;7.744;2022-09-09T03:10:32;96477.81;;;13.20;100.00
28432;BME280;15664;51.302;7.744;2022-09-09T03:12:57;96481.63;;;13.24;100.00
28432;BME280;15664;51.302;7.744;2022-09-09T03:15:25;96482.19;;;13.26;100.00
28432;BME280;15664;51.302;7.744;2022-09-09T03:17:54;96488.13;;;13.28;100.00
28432;BME280;15664;51.302;7.744;2022-09-09T03:20:20;96490.28;;;13.32;100.00
28432;BME280;15664;51.302;7.744;2022-09-09T03:22:46;96483.66;;;13.34;100.00
28432;BME280;15664;51.302;7.744;2022-09-09T03:25:12;96482.16;;;13.38;100.00
28432;BME280;15664;51.302;7.744;2022-09-09T03:27:38;96480.88;;;13.41;100.00
28432;BME280;15664;51.302;7.744;2022-09-09T03:30:04;96488.41;;;13.44;100.00
28432;BME280;15664;51.302;7.744;2022-09-09T03:32:30;96467.00;;;13.44;100.00
28432;BME280;15664;51.302;7.744;2022-09-09T03:34:56;96479.31;;;13.45;100.00
28432;BME280;15664;51.302;7.744;2022-09-09T03:37:21;96473.72;;;13.47;100.00
28432;BME280;15664;51.302;7.744;2022-09-09T03:39:49;96475.09;;;13.49;99.77
28432;BME280;15664;51.302;7.744;2022-09-09T03:42:15;96473.00;;;13.51;99.52
28432;BME280;15664;51.302;7.744;2022-09-09T03:44:48;96470.06;;;13.53;99.40
28432;BME280;15664;51.302;7.744;2022-09-09T03:47:19;96472.50;;;13.54;99.53
28432;BME280;15664;51.302;7.744;2022-09-09T03:49:45;96475.97;;;13.55;99.38
28432;BME280;15664;51.302;7.744;2022-09-09T03:52:11;96474.38;;;13.54;99.22
28432;BME280;15664;51.302;7.744;2022-09-09T03:54:37;96467.94;;;13.55;99.00
28432;BME280;15664;51.302;7.744;2022-09-09T03:57:04;96472.50;;;13.54;99.06
28432;BME280;15664;51.302;7.744;2022-09-09T03:59:30;96467.94;;;13.55;98.87
28432;BME280;15664;51.302;7.744;2022-09-09T04:01:55;96471.47;;;13.55;98.85
28432;BME280;15664;51.302;7.744;2022-09-09T04:04:22;96464.47;;;13.54;99.11
28432;BME280;15664;51.302;7.744;2022-09-09T04:06:47;96467.94;;;13.55;99.01
28432;BME280;15664;51.302;7.744;2022-09-09T04:09:14;96469.81;;;13.54;98.94
28432;BME280;15664;51.302;7.744;2022-09-09T04:11:41;96477.28;;;13.52;99.20
28432;BME280;15664;51.302;7.744;2022-09-09T04:14:07;96471.94;;;13.52;99.25
28432;BME280;15664;51.302;7.744;2022-09-09T04:16:33;96479.16;;;13.52;99.40
28432;BME280;15664;51.302;7.744;2022-09-09T04:18:59;96479.16;;;13.52;99.30
28432;BME280;15664;51.302;7.744;2022-09-09T04:21:25;96476.97;;;13.49;99.03
28432;BME280;15664;51.302;7.744;2022-09-09T04:23:52;96479.88;;;13.47;99.13
28432;BME280;15664;51.302;7.744;2022-09-09T04:26:17;96477.69;;;13.44;99.39
28432;BME280;15664;51.302;7.744;2022-09-09T04:28:44;96471.75;;;13.42;99.32
28432;BME280;15664;51.302;7.744;2022-09-09T04:31:19;96468.53;;;13.40;99.24
28432;BME280;15664;51.302;7.744;2022-09-09T04:33:47;96464.47;;;13.37;99.48
28432;BME280;15664;51.302;7.744;2022-09-09T04:36:13;96469.22;;;13.35;99.29
28432;BME280;15664;51.302;7.744;2022-09-09T04:38:38;96471.34;;;13.33;99.22
28432;BME280;15664;51.302;7.744;2022-09-09T04:41:05;96470.50;;;13.33;99.06
28432;BME280;15664;51.302;7.744;2022-09-09T04:43:33;96472.16;;;13.34;99.15
28432;BME280;15664;51.302;7.744;2022-09-09T04:46:01;96468.41;;;13.35;99.06
28432;BME280;15664;51.302;7.744;2022-09-09T04:48:26;96479.94;;;13.35;98.90
28432;BME280;15664;51.302;7.744;2022-09-09T04:51:03;96473.78;;;13.35;98.75
28432;BME280;15664;51.302;7.744;2022-09-09T04:53:31;96477.03;;;13.37;99.04
28432;BME280;15664;51.302;7.744;2022-09-09T04:56:11;96471.69;;;13.37;99.18
28432;BME280;15664;51.302;7.744;2022-09-09T04:58:41;96474.94;;;13.39;99.01
28432;BME280;15664;51.302;7.744;2022-09-09T05:01:11;96469.81;;;13.37;98.72
28432;BME280;15664;51.302;7.744;2022-09-09T05:03:38;96466.09;;;13.38;98.89
28432;BME280;15664;51.302;7.744;2022-09-09T05:06:11;96469.34;;;13.40;98.58
28432;BME280;15664;51.302;7.744;2022-09-09T05:08:38;96461.06;;;13.42;98.41
28432;BME280;15664;51.302;7.744;2022-09-09T05:11:12;96471.53;;;13.43;98.28
28432;BME280;15664;51.302;7.744;2022-09-09T05:13:38;96478.03;;;13.48;98.00
28432;BME280;15664;51.302;7.744;2022-09-09T05:16:03;96474.53;;;13.47;97.83
28432;BME280;15664;51.302;7.744;2022-09-09T05:18:29;96470.78;;;13.48;97.66
28432;BME280;15664;51.302;7.744;2022-09-09T05:21:00;96471.38;;;13.50;97.57
28432;BME280;15664;51.302;7.744;2022-09-09T05:23:26;96471.38;;;13.50;97.52
28432;BME280;15664;51.302;7.744;2022-09-09T05:25:58;96469.25;;;13.52;97.55
28432;BME280;15664;51.302;7.744;2022-09-09T05:28:25;96475.19;;;13.54;97.24
28432;BME280;15664;51.302;7.744;2022-09-09T05:31:02;96474.13;;;13.55;97.04
28432;BME280;15664;51.302;7.744;2022-09-09T05:33:34;96477.06;;;13.54;96.99
28432;BME280;15664;51.302;7.744;2022-09-09T05:36:08;96479.50;;;13.55;96.96
28432;BME280;15664;51.302;7.744;2022-09-09T05:38:35;96484.84;;;13.55;97.14
28432;BME280;15664;51.302;7.744;2022-09-09T05:41:03;96486.22;;;13.58;97.24
28432;BME280;15664;51.302;7.744;2022-09-09T05:43:29;96492.72;;;13.62;97.38
28432;BME280;15664;51.302;7.744;2022-09-09T05:46:08;96486.88;;;13.65;97.40
28432;BME280;15664;51.302;7.744;2022-09-09T05:48:36;96494.44;;;13.68;97.73
28432;BME280;15664;51.302;7.744;2022-09-09T05:51:03;96489.41;;;13.72;97.45
28432;BME280;15664;51.302;7.744;2022-09-09T05:53:30;96495.09;;;13.75;97.43
28432;BME280;15664;51.302;7.744;2022-09-09T05:56:05;96489.22;;;13.78;97.34
28432;BME280;15664;51.302;7.744;2022-09-09T05:58:34;96488.44;;;13.78;96.31
28432;BME280;15664;51.302;7.744;2022-09-09T06:01:01;96492.25;;;13.82;96.38
28432;BME280;15664;51.302;7.744;2022-09-09T06:03:27;96495.25;;;13.86;96.29
28432;BME280;15664;51.302;7.744;2022-09-09T06:06:00;96498.47;;;13.88;96.38
28432;BME280;15664;51.302;7.744;2022-09-09T06:08:26;96499.06;;;13.90;97.06
28432;BME280;15664;51.302;7.744;2022-09-09T06:10:52;96503.56;;;13.89;95.83
28432;BME280;15664;51.302;7.744;2022-09-09T06:13:18;96506.25;;;13.89;96.95
28432;BME280;15664;51.302;7.744;2022-09-09T06:15:53;96508.94;;;13.89;96.69
28432;BME280;15664;51.302;7.744;2022-09-09T06:18:19;96497.16;;;13.90;96.48
28432;BME280;15664;51.302;7.744;2022-09-09T06:23:19;96503.34;;;13.91;95.89
28432;BME280;15664;51.302;7.744;2022-09-09T06:25:45;96503.09;;;13.92;95.35
28432;BME280;15664;51.302;7.744;2022-09-09T06:28:11;96502.06;;;13.93;95.30
28432;BME280;15664;51.302;7.744;2022-09-09T06:30:36;96496.91;;;13.92;94.97
28432;BME280;15664;51.302;7.744;2022-09-09T06:33:02;96499.38;;;13.93;94.99
28432;BME280;15664;51.302;7.744;2022-09-09T06:35:28;96504.47;;;13.95;95.10
28432;BME280;15664;51.302;7.744;2022-09-09T06:37:54;96511.22;;;13.98;95.33
28432;BME280;15664;51.302;7.744;2022-09-09T06:40:19;96497.81;;;13.98;94.75
28432;BME280;15664;51.302;7.744;2022-09-09T06:42:46;96504.81;;;13.99;94.69
28432;BME280;15664;51.302;7.744;2022-09-09T06:45:22;96508.44;;;14.09;94.88
28432;BME280;15664;51.302;7.744;2022-09-09T06:47:55;96508.34;;;14.21;94.96
28432;BME280;15664;51.302;7.744;2022-09-09T06:50:21;96499.44;;;14.38;94.37
28432;BME280;15664;51.302;7.744;2022-09-09T06:52:47;96507.16;;;14.51;93.52
28432;BME280;15664;51.302;7.744;2022-09-09T06:55:13;96506.63;;;14.54;92.60
28432;BME280;15664;51.302;7.744;2022-09-09T06:57:41;96501.78;;;14.51;93.68
28432;BME280;15664;51.302;7.744;2022-09-09T07:00:14;96502.13;;;14.38;94.48
28432;BME280;15664;51.302;7.744;2022-09-09T07:02:40;96512.72;;;14.27;94.95
28432;BME280;15664;51.302;7.744;2022-09-09T07:05:08;96510.94;;;14.16;97.21
28432;BME280;15664;51.302;7.744;2022-09-09T07:07:34;96514.06;;;14.08;98.61
28432;BME280;15664;51.302;7.744;2022-09-09T07:09:59;96511.31;;;14.03;98.96
28432;BME280;15664;51.302;7.744;2022-09-09T07:12:24;96509.91;;;14.00;99.14
28432;BME280;15664;51.302;7.744;2022-09-09T07:14:55;96511.47;;;13.96;99.92
28432;BME280;15664;51.302;7.744;2022-09-09T07:17:21;96513.31;;;13.95;100.00
28432;BME280;15664;51.302;7.744;2022-09-09T07:19:46;96511.31;;;14.03;99.99
28432;BME280;15664;51.302;7.744;2022-09-09T07:22:14;96510.66;;;14.13;100.00
28432;BME280;15664;51.302;7.744;2022-09-09T07:24:40;96515.81;;;14.19;100.00
28432;BME280;15664;51.302;7.744;2022-09-09T07:27:06;96517.59;;;14.31;100.00
28432;BME280;15664;51.302;7.744;2022-09-09T07:29:31;96508.31;;;14.38;100.00
28432;BME280;15664;51.302;7.744;2022-09-09T07:31:56;96510.75;;;14.40;97.88
28432;BME280;15664;51.302;7.744;2022-09-09T07:34:28;96510.81;;;14.45;97.60
28432;BME280;15664;51.302;7.744;2022-09-09T07:36:54;96513.13;;;14.58;97.97
28432;BME280;15664;51.302;7.744;2022-09-09T07:39:19;96510.50;;;14.81;98.50
28432;BME280;15664;51.302;7.744;2022-09-09T07:41:48;96516.41;;;14.83;94.87
28432;BME280;15664;51.302;7.744;2022-09-09T07:44:19;96515.56;;;15.04;94.85
28432;BME280;15664;51.302;7.744;2022-09-09T07:46:48;96510.41;;;15.25;95.23
28432;BME280;15664;51.302;7.744;2022-09-09T07:49:17;96523.38;;;15.61;96.42
28432;BME280;15664;51.302;7.744;2022-09-09T07:51:45;96523.50;;;15.76;92.76
28432;BME280;15664;51.302;7.744;2022-09-09T07:54:14;96528.50;;;15.89;90.48
28432;BME280;15664;51.302;7.744;2022-09-09T07:56:43;96530.16;;;16.01;88.35
28432;BME280;15664;51.302;7.744;2022-09-09T07:59:10;96530.25;;;16.11;87.48
28432;BME280;15664;51.302;7.744;2022-09-09T08:01:41;96537.72;;;16.04;86.66
28432;BME280;15664;51.302;7.744;2022-09-09T08:04:10;96532.84;;;16.01;87.29
28432;BME280;15664;51.302;7.744;2022-09-09T08:06:43;96526.81;;;15.83;89.01
28432;BME280;15664;51.302;7.744;2022-09-09T08:09:10;96533.94;;;15.72;87.52
28432;BME280;15664;51.302;7.744;2022-09-09T08:11:37;96529.41;;;15.73;88.50
28432;BME280;15664;51.302;7.744;2022-09-09T08:14:03;96534.72;;;15.68;87.94
28432;BME280;15664;51.302;7.744;2022-09-09T08:16:32;96531.53;;;15.71;90.05
28432;BME280;15664;51.302;7.744;2022-09-09T08:18:59;96536.75;;;15.55;88.77
28432;BME280;15664;51.302;7.744;2022-09-09T08:21:27;96531.56;;;15.76;89.17
28432;BME280;15664;51.302;7.744;2022-09-09T08:23:54;96535.44;;;15.85;87.04
28432;BME280;15664;51.302;7.744;2022-09-09T08:26:22;96535.88;;;16.10;86.78
28432;BME280;15664;51.302;7.744;2022-09-09T08:28:53;96545.44;;;16.33;85.39
28432;BME280;15664;51.302;7.744;2022-09-09T08:31:24;96540.13;;;16.43;82.50
28432;BME280;15664;51.302;7.744;2022-09-09T08:33:50;96534.28;;;16.51;82.64
28432;BME280;15664;51.302;7.744;2022-09-09T08:36:20;96534.34;;;16.67;80.83
28432;BME280;15664;51.302;7.744;2022-09-09T08:38:51;96538.88;;;17.14;81.31
28432;BME280;15664;51.302;7.744;2022-09-09T08:41:45;96535.44;;;17.45;76.98
28432;BME280;15664;51.302;7.744;2022-09-09T08:47:49;96542.41;;;17.30;77.18
28432;BME280;15664;51.302;7.744;2022-09-09T08:50:29;96546.25;;;17.55;76.52
28432;BME280;15664;51.302;7.744;2022-09-09T08:55:48;96546.38;;;16.49;81.26
28432;BME280;15664;51.302;7.744;2022-09-09T08:58:26;96550.41;;;16.51;80.91
28432;BME280;15664;51.302;7.744;2022-09-09T09:07:06;96547.56;;;17.42;75.71
28432;BME280;15664;51.302;7.744;2022-09-09T09:09:45;96547.06;;;17.76;73.92
28432;BME280;15664;51.302;7.744;2022-09-09T09:12:23;96551.63;;;17.65;73.09
28432;BME280;15664;51.302;7.744;2022-09-09T09:14:50;96548.13;;;17.75;73.87
28432;BME280;15664;51.302;7.744;2022-09-09T09:17:18;96553.53;;;17.80;71.92
28432;BME280;15664;51.302;7.744;2022-09-09T09:19:46;96545.44;;;17.91;70.47
28432;BME280;15664;51.302;7.744;2022-09-09T09:24:55;96550.66;;;19.09;70.37
28432;BME280;15664;51.302;7.744;2022-09-09T09:30:38;96556.66;;;18.80;67.36
28432;BME280;15664;51.302;7.744;2022-09-09T09:33:23;96546.75;;;18.55;70.65
28432;BME280;15664;51.302;7.744;2022-09-09T09:35:52;96560.81;;;17.64;73.76
28432;BME280;15664;51.302;7.744;2022-09-09T09:38:25;96558.75;;;17.03;74.69
28432;BME280;15664;51.302;7.744;2022-09-09T09:40:57;96560.78;;;15.95;78.18
28432;BME280;15664;51.302;7.744;2022-09-09T09:43:28;96553.88;;;15.49;84.48
28432;BME280;15664;51.302;7.744;2022-09-09T09:45:56;96567.63;;;15.03;87.09
28432;BME280;15664;51.302;7.744;2022-09-09T09:48:27;96555.41;;;15.13;88.29
28432;BME280;15664;51.302;7.744;2022-09-09T09:50:59;96548.72;;;15.42;89.42
28432;BME280;15664;51.302;7.744;2022-09-09T09:53:30;96556.97;;;15.90;88.25
28432;BME280;15664;51.302;7.744;2022-09-09T09:56:03;96550.72;;;16.17;87.35
28432;BME280;15664;51.302;7.744;2022-09-09T09:58:31;96549.75;;;16.77;86.91
28432;BME280;15664;51.302;7.744;2022-09-09T10:00:59;96551.31;;;17.41;81.60
28432;BME280;15664;51.302;7.744;2022-09-09T10:03:30;96558.94;;;17.96;80.12
28432;BME280;15664;51.302;7.744;2022-09-09T10:05:57;96553.56;;;18.27;79.18
28432;BME280;15664;51.302;7.744;2022-09-09T10:08:25;96562.63;;;18.77;73.84
28432;BME280;15664;51.302;7.744;2022-09-09T10:11:40;96572.59;;;18.87;72.42
28432;BME280;15664;51.302;7.744;2022-09-09T10:19:35;96568.06;;;18.67;67.75
28432;BME280;15664;51.302;7.744;2022-09-09T10:22:19;96549.22;;;18.31;69.32
28432;BME280;15664;51.302;7.744;2022-09-09T10:27:36;96550.53;;;17.56;71.38
28432;BME280;15664;51.302;7.744;2022-09-09T10:33:04;96558.00;;;17.18;74.13
28432;BME280;15664;51.302;7.744;2022-09-09T10:35:46;96554.66;;;18.10;70.43
28432;BME280;15664;51.302;7.744;2022-09-09T10:38:36;96546.34;;;19.53;65.82
28432;BME280;15664;51.302;7.744;2022-09-09T10:41:13;96547.72;;;20.54;58.83
28432;BME280;15664;51.302;7.744;2022-09-09T10:54:31;96536.13;;;21.98;53.28
28432;BME280;15664;51.302;7.744;2022-09-09T11:00:06;96522.25;;;21.04;54.63
28432;BME280;15664;51.302;7.744;2022-09-09T11:02:34;96542.91;;;20.75;55.58
28432;BME280;15664;51.302;7.744;2022-09-09T11:07:30;96560.84;;;18.16;62.73
28432;BME280;15664;51.302;7.744;2022-09-09T11:10:03;96554.28;;;17.34;69.93
28432;BME280;15664;51.302;7.744;2022-09-09T11:12:34;96546.75;;;17.42;78.64
28432;BME280;15664;51.302;7.744;2022-09-09T11:15:06;96547.06;;;17.71;69.50
28432;BME280;15664;51.302;7.744;2022-09-09T11:17:43;96538.97;;;17.86;71.69
28432;BME280;15664;51.302;7.744;2022-09-09T11:20:13;96548.16;;;18.22;71.50
28432;BME280;15664;51.302;7.744;2022-09-09T11:23:04;96550.88;;;18.11;68.53
28432;BME280;15664;51.302;7.744;2022-09-09T11:25:45;96547.63;;;18.09;68.63
28432;BME280;15664;51.302;7.744;2022-09-09T11:31:21;96543.28;;;17.93;65.33
28432;BME280;15664;51.302;7.744;2022-09-09T11:37:18;96541.41;;;18.34;63.88
28432;BME280;15664;51.302;7.744;2022-09-09T11:42:22;96546.53;;;18.26;63.78
28432;BME280;15664;51.302;7.744;2022-09-09T11:44:48;96538.97;;;17.92;63.92
28432;BME280;15664;51.302;7.744;2022-09-09T11:47:24;96523.63;;;17.61;64.87
28432;BME280;15664;51.302;7.744;2022-09-09T11:49:55;96525.47;;;17.61;64.30
28432;BME280;15664;51.302;7.744;2022-09-09T11:52:41;96529.75;;;17.36;65.96
28432;BME280;15664;51.302;7.744;2022-09-09T11:55:33;96535.97;;;17.47;67.43
28432;BME280;15664;51.302;7.744;2022-09-09T11:58:05;96538.16;;;17.70;66.51
28432;BME280;15664;51.302;7.744;2022-09-09T12:00:49;96536.50;;;17.38;66.02
28432;BME280;15664;51.302;7.744;2022-09-09T12:06:00;96542.22;;;17.63;64.57
28432;BME280;15664;51.302;7.744;2022-09-09T12:08:34;96538.47;;;18.20;62.46
28432;BME280;15664;51.302;7.744;2022-09-09T12:11:01;96542.72;;;18.47;62.04
28432;BME280;15664;51.302;7.744;2022-09-09T12:13:28;96527.94;;;19.15;61.63
28432;BME280;15664;51.302;7.744;2022-09-09T12:15:55;96531.84;;;19.39;58.95
28432;BME280;15664;51.302;7.744;2022-09-09T12:18:25;96529.25;;;19.63;57.57
28432;BME280;15664;51.302;7.744;2022-09-09T12:31:56;96533.56;;;18.28;58.10
28432;BME280;15664;51.302;7.744;2022-09-09T12:34:38;96523.59;;;18.33;59.99
28432;BME280;15664;51.302;7.744;2022-09-09T12:37:40;96524.81;;;18.77;58.04
28432;BME280;15664;51.302;7.744;2022-09-09T12:40:19;96524.50;;;18.94;58.56
28432;BME280;15664;51.302;7.744;2022-09-09T12:42:45;96510.69;;;19.06;58.09
28432;BME280;15664;51.302;7.744;2022-09-09T12:45:27;96516.88;;;19.07;58.15
28432;BME280;15664;51.302;7.744;2022-09-09T12:48:03;96518.81;;;19.01;57.75
28432;BME280;15664;51.302;7.744;2022-09-09T12:50:35;96520.25;;;19.33;56.55
28432;BME280;15664;51.302;7.744;2022-09-09T12:53:07;96503.28;;;19.22;57.27
28432;BME280;15664;51.302;7.744;2022-09-09T12:55:37;96507.03;;;19.31;57.51
28432;BME280;15664;51.302;7.744;2022-09-09T12:58:04;96508.97;;;19.21;56.80
28432;BME280;15664;51.302;7.744;2022-09-09T13:00:32;96512.75;;;19.25;57.35
28432;BME280;15664;51.302;7.744;2022-09-09T13:03:00;96511.91;;;19.69;57.02
28432;BME280;15664;51.302;7.744;2022-09-09T13:05:37;96515.28;;;20.49;53.65
28432;BME280;15664;51.302;7.744;2022-09-09T13:08:06;96520.97;;;21.58;50.78
28432;BME280;15664;51.302;7.744;2022-09-09T13:10:35;96516.66;;;22.56;48.30
28432;BME280;15664;51.302;7.744;2022-09-09T13:13:04;96523.69;;;22.99;46.97
28432;BME280;15664;51.302;7.744;2022-09-09T13:15:38;96518.97;;;22.63;48.37
28432;BME280;15664;51.302;7.744;2022-09-09T13:18:06;96514.25;;;22.55;47.54
28432;BME280;15664;51.302;7.744;2022-09-09T13:20:36;96495.06;;;22.32;47.93
28432;BME280;15664;51.302;7.744;2022-09-09T13:23:02;96497.94;;;22.69;47.87
28432;BME280;15664;51.302;7.744;2022-09-09T13:25:28;96498.13;;;22.58;46.83
28432;BME280;15664;51.302;7.744;2022-09-09T13:27:55;96493.50;;;21.65;49.44
28432;BME280;15664;51.302;7.744;2022-09-09T13:35:57;96496.03;;;20.51;53.20
28432;BME280;15664;51.302;7.744;2022-09-09T13:38:24;96493.19;;;20.61;53.50
28432;BME280;15664;51.302;7.744;2022-09-09T13:40:59;96485.88;;;20.13;51.85
28432;BME280;15664;51.302;7.744;2022-09-09T13:43:27;96478.34;;;19.70;52.43
28432;BME280;15664;51.302;7.744;2022-09-09T13:45:59;96482.03;;;19.50;52.67
28432;BME280;15664;51.302;7.744;2022-09-09T13:48:26;96496.44;;;19.40;53.67
28432;BME280;15664;51.302;7.744;2022-09-09T13:51:00;96485.91;;;19.39;54.30
28432;BME280;15664;51.302;7.744;2022-09-09T13:53:26;96486.22;;;19.32;53.82
28432;BME280;15664;51.302;7.744;2022-09-09T13:55:52;96495.88;;;18.83;54.24
28432;BME280;15664;51.302;7.744;2022-09-09T13:58:18;96492.09;;;18.84;54.74
28432;BME280;15664;51.302;7.744;2022-09-09T14:00:44;96488.25;;;19.06;54.42
28432;BME280;15664;51.302;7.744;2022-09-09T14:03:10;96487.50;;;18.95;54.80
28432;BME280;15664;51.302;7.744;2022-09-09T14:05:36;96479.69;;;18.93;54.56
28432;BME280;15664;51.302;7.744;2022-09-09T14:08:04;96484.34;;;18.72;55.26
28432;BME280;15664;51.302;7.744;2022-09-09T14:10:30;96473.34;;;18.53;56.38
28432;BME280;15664;51.302;7.744;2022-09-09T14:12:55;96476.78;;;18.74;56.08
28432;BME280;15664;51.302;7.744;2022-09-09T14:15:21;96469.13;;;18.97;54.79
28432;BME280;15664;51.302;7.744;2022-09-09T14:17:47;96469.63;;;19.04;53.99
28432;BME280;15664;51.302;7.744;2022-09-09T14:20:14;96475.91;;;19.34;53.47
28432;BME280;15664;51.302;7.744;2022-09-09T14:22:41;96464.50;;;20.11;52.76
28432;BME280;15664;51.302;7.744;2022-09-09T14:25:07;96457.13;;;20.65;50.41
28432;BME280;15664;51.302;7.744;2022-09-09T14:27:32;96471.41;;;20.23;50.94
28432;BME280;15664;51.302;7.744;2022-09-09T14:29:58;96465.94;;;19.69;52.34
28432;BME280;15664;51.302;7.744;2022-09-09T14:32:25;96472.75;;;19.27;54.38
28432;BME280;15664;51.302;7.744;2022-09-09T14:34:51;96461.69;;;19.23;54.68
28432;BME280;15664;51.302;7.744;2022-09-09T14:37:17;96467.94;;;19.13;55.24
28432;BME280;15664;51.302;7.744;2022-09-09T14:39:43;96468.19;;;18.62;55.99
28432;BME280;15664;51.302;7.744;2022-09-09T14:42:12;96492.00;;;18.34;57.80
28432;BME280;15664;51.302;7.744;2022-09-09T14:44:38;96506.38;;;18.09;60.46
28432;BME280;15664;51.302;7.744;2022-09-09T14:47:05;96504.69;;;17.41;69.13
28432;BME280;15664;51.302;7.744;2022-09-09T14:49:30;96503.75;;;16.88;73.90
28432;BME280;15664;51.302;7.744;2022-09-09T14:51:56;96522.13;;;17.02;76.68
28432;BME280;15664;51.302;7.744;2022-09-09T14:54:21;96514.63;;;17.19;78.11
28432;BME280;15664;51.302;7.744;2022-09-09T14:56:48;96502.25;;;17.24;77.93
28432;BME280;15664;51.302;7.744;2022-09-09T14:59:14;96495.47;;;17.00;78.88
28432;BME280;15664;51.302;7.744;2022-09-09T15:01:39;96500.78;;;16.90;79.49
28432;BME280;15664;51.302;7.744;2022-09-09T15:04:05;96497.28;;;16.84;81.79